Time;durP1;ratioP1;P1;durP2;ratioP2;P2;SDS_P1;SDS_P2;PMS_P1;PMS_P2;Temp;Humidity;BMP_temperature;BMP_pressure;BME280_temperature;BME280_humidity;BME280_pressure;Samples;Min_cycle;Max_cycle;Signal;HPM_P1;HPM_P2
2024/03/01 00:01:49;;;;;;;30.80;18.70;;;6.10;99.90;5.70;99760.00;;;;4919010;28;109182;-66
2024/03/01 00:04:15;;;;;;;29.00;15.53;;;6.40;99.90;5.70;99758.00;;;;4904351;28;92875;-66
2024/03/01 00:06:41;;;;;;;33.87;18.13;;;5.80;99.90;5.80;99759.00;;;;4909106;28;93983;-66
2024/03/01 00:09:07;;;;;;;28.83;16.20;;;6.50;99.90;5.80;99759.00;;;;4909605;28;121966;-67
2024/03/01 00:11:32;;;;;;;29.13;16.27;;;5.90;99.90;5.90;99760.00;;;;4908689;28;93638;-67
2024/03/01 00:13:58;;;;;;;28.57;16.60;;;6.60;99.90;5.90;99756.00;;;;4915486;28;99296;-65
2024/03/01 00:16:23;;;;;;;26.80;16.77;;;6.50;99.90;6.00;99749.00;;;;4906153;28;108223;-65
2024/03/01 00:18:49;;;;;;;25.07;16.93;;;6.10;99.90;6.00;99753.00;;;;4913663;28;123184;-66
2024/03/01 00:21:17;;;;;;;26.33;16.30;;;6.70;99.90;6.10;99755.00;;;;4920375;28;122204;-67
2024/03/01 00:23:44;;;;;;;31.10;16.50;;;6.20;99.90;6.10;99748.00;;;;4911521;28;92554;-65
2024/03/01 00:26:10;;;;;;;25.47;16.00;;;6.60;99.90;6.10;99752.00;;;;4914190;28;99057;-66
2024/03/01 00:28:36;;;;;;;35.03;17.93;;;6.30;99.90;6.20;99742.00;;;;4914957;28;93089;-66
2024/03/01 00:31:02;;;;;;;31.30;18.10;;;6.30;99.90;6.20;99738.00;;;;4905546;28;111091;-65
2024/03/01 00:33:28;;;;;;;29.47;16.50;;;6.30;99.90;6.20;99740.00;;;;4914963;28;93161;-66
2024/03/01 00:35:54;;;;;;;33.33;17.37;;;6.40;99.90;6.20;99736.00;;;;4914491;28;96888;-66
2024/03/01 00:38:21;;;;;;;33.63;17.17;;;7.00;99.90;6.30;99732.00;;;;4914481;28;93330;-66
2024/03/01 00:40:46;;;;;;;31.67;16.57;;;7.20;99.90;6.30;99725.00;;;;4917550;28;92632;-66
2024/03/01 00:43:12;;;;;;;31.10;16.87;;;6.40;99.90;6.30;99736.00;;;;4909340;28;104280;-66
2024/03/01 00:45:39;;;;;;;27.07;15.77;;;7.10;99.90;6.30;99717.00;;;;4905642;28;93076;-66
2024/03/01 00:48:13;;;;;;;28.33;17.40;;;6.50;99.90;6.30;99724.00;;;;4909314;28;92866;-66
2024/03/01 00:50:40;;;;;;;25.90;17.20;;;5.90;99.90;6.40;99729.00;;;;4909574;28;93208;-66
2024/03/01 00:53:08;;;;;;;30.27;18.53;;;6.50;99.90;6.40;99726.00;;;;4921926;28;93062;-66
2024/03/01 00:55:35;;;;;;;29.50;15.73;;;7.20;99.90;6.40;99724.00;;;;4908154;28;93907;-66
2024/03/01 00:58:01;;;;;;;24.57;16.50;;;7.30;99.90;6.40;99721.00;;;;4894541;28;94434;-67
2024/03/01 01:00:27;;;;;;;29.53;17.70;;;6.50;99.90;6.40;99717.00;;;;4906341;28;116214;-66
2024/03/01 01:02:53;;;;;;;26.50;16.67;;;6.60;99.90;6.40;99711.00;;;;4909492;28;93014;-67
2024/03/01 01:05:19;;;;;;;33.00;16.67;;;6.60;99.90;6.40;99711.00;;;;4901492;28;109089;-66
2024/03/01 01:07:44;;;;;;;23.50;16.73;;;6.60;99.90;6.40;99719.00;;;;4904202;28;120973;-66
2024/03/01 01:10:10;;;;;;;23.50;15.33;;;7.30;99.90;6.50;99712.00;;;;4904178;28;121604;-65
2024/03/01 01:12:37;;;;;;;26.40;16.50;;;7.50;99.90;6.50;99713.00;;;;4905092;28;112576;-66
2024/03/01 01:15:04;;;;;;;36.30;16.80;;;6.80;99.90;6.50;99709.00;;;;4906014;28;93144;-65
2024/03/01 01:17:30;;;;;;;30.87;18.77;;;6.60;99.90;6.40;99718.00;;;;4910327;28;94181;-64
2024/03/01 01:19:57;;;;;;;27.13;16.73;;;6.60;99.90;6.40;99701.00;;;;4907185;28;93890;-64
2024/03/01 01:22:24;;;;;;;29.47;16.57;;;6.90;99.90;6.40;99697.00;;;;4904530;28;92816;-66
2024/03/01 01:24:50;;;;;;;28.50;16.33;;;7.20;99.90;6.40;99710.00;;;;4909987;28;99543;-65
2024/03/01 01:27:15;;;;;;;29.37;16.00;;;7.10;99.90;6.40;99700.00;;;;4901072;28;121607;-65
2024/03/01 01:29:41;;;;;;;30.30;17.33;;;6.60;99.90;6.40;99706.00;;;;4907371;28;122813;-65
2024/03/01 01:32:07;;;;;;;30.23;17.87;;;6.50;99.90;6.40;99692.00;;;;4907081;28;111672;-65
2024/03/01 01:34:33;;;;;;;26.30;17.07;;;7.40;99.90;6.40;99698.00;;;;4904799;28;93163;-65
2024/03/01 01:36:59;;;;;;;32.30;16.80;;;6.60;99.90;6.40;99689.00;;;;4909817;28;113390;-66
2024/03/01 01:39:25;;;;;;;30.00;15.93;;;6.60;99.90;6.40;99689.00;;;;4902012;28;112914;-66
2024/03/01 01:41:50;;;;;;;22.63;15.20;;;6.70;99.90;6.40;99687.00;;;;4907198;28;113458;-66
2024/03/01 01:44:16;;;;;;;27.90;14.33;;;7.20;99.90;6.40;99693.00;;;;4903363;28;108230;-66
2024/03/01 01:46:47;;;;;;;24.90;16.27;;;7.20;99.90;6.30;99686.00;;;;4903279;28;123073;-66
2024/03/01 01:49:13;;;;;;;24.13;16.20;;;6.50;99.90;6.30;99671.00;;;;4906989;28;115259;-65
2024/03/01 01:51:40;;;;;;;28.13;16.97;;;6.50;99.90;6.30;99675.00;;;;4910579;28;112915;-67
2024/03/01 01:54:07;;;;;;;26.80;15.80;;;7.20;99.90;6.30;99675.00;;;;4906879;28;93455;-65
2024/03/01 01:56:33;;;;;;;26.37;15.77;;;6.40;99.90;6.20;99682.00;;;;4906005;28;112117;-66
2024/03/01 01:58:59;;;;;;;25.33;16.00;;;6.60;99.90;6.20;99670.00;;;;4907051;28;123655;-66
2024/03/01 02:01:25;;;;;;;28.03;17.40;;;6.30;99.90;6.20;99658.00;;;;4921122;28;112615;-66
2024/03/01 02:03:52;;;;;;;29.10;13.87;;;6.40;99.90;6.20;99652.00;;;;4908485;28;93160;-65
2024/03/01 02:06:20;;;;;;;33.13;17.40;;;6.90;99.90;6.20;99652.00;;;;4906055;28;93953;-65
2024/03/01 02:08:46;;;;;;;38.43;18.10;;;6.60;99.90;6.20;99657.00;;;;4906421;28;94101;-65
2024/03/01 02:11:11;;;;;;;23.47;16.40;;;6.40;99.90;6.20;99651.00;;;;4907401;28;102529;-66
2024/03/01 02:13:37;;;;;;;33.03;15.90;;;6.30;99.90;6.10;99655.00;;;;4903517;28;109375;-66
2024/03/01 02:16:03;;;;;;;24.40;15.70;;;7.00;99.90;6.10;99645.00;;;;4904398;28;123244;-66
2024/03/01 02:18:29;;;;;;;30.63;15.37;;;6.30;99.90;6.10;99644.00;;;;4910208;28;112346;-66
2024/03/01 02:21:10;;;;;;;28.10;16.93;;;6.80;99.90;6.10;99645.00;;;;4908120;28;93408;-66
2024/03/01 02:23:35;;;;;;;23.83;15.43;;;6.20;99.90;6.10;99644.00;;;;4923935;28;94344;-66
2024/03/01 02:26:01;;;;;;;38.47;16.13;;;6.90;99.90;6.10;99644.00;;;;4909131;28;122527;-66
2024/03/01 02:28:27;;;;;;;27.77;16.80;;;6.20;99.90;6.00;99648.00;;;;4911629;28;111050;-66
2024/03/01 02:30:53;;;;;;;30.83;17.77;;;6.50;99.90;6.10;99644.00;;;;4913465;28;92838;-66
2024/03/01 02:33:22;;;;;;;33.17;17.10;;;6.50;99.90;6.00;99641.00;;;;4906728;28;108613;-66
2024/03/01 02:35:48;;;;;;;28.00;15.90;;;6.90;99.90;6.00;99632.00;;;;4914831;28;112441;-66
2024/03/01 02:38:14;;;;;;;23.97;17.43;;;6.40;99.90;6.00;99623.00;;;;4908965;28;123575;-66
2024/03/01 02:40:40;;;;;;;40.40;16.77;;;6.20;99.90;6.00;99624.00;;;;4908677;28;113540;-65
2024/03/01 02:43:06;;;;;;;25.07;16.60;;;6.20;99.90;6.00;99620.00;;;;4907271;28;93083;-65
2024/03/01 02:45:33;;;;;;;28.47;17.33;;;7.10;99.90;6.00;99620.00;;;;4908308;28;93682;-66
2024/03/01 02:47:59;;;;;;;23.60;15.40;;;6.10;99.90;6.00;99616.00;;;;4907908;28;93946;-66
2024/03/01 02:50:24;;;;;;;27.20;16.63;;;6.80;99.90;6.00;99609.00;;;;4910022;28;113008;-66
2024/03/01 02:52:50;;;;;;;25.97;16.23;;;7.00;99.90;6.00;99608.00;;;;4909349;28;107000;-67
2024/03/01 02:55:20;;;;;;;21.37;15.50;;;6.30;99.90;6.00;99615.00;;;;4908697;28;122013;-66
2024/03/01 02:57:51;;;;;;;22.03;15.87;;;6.10;99.90;5.90;99614.00;;;;4905832;28;94021;-67
2024/03/01 03:00:18;;;;;;;21.30;14.37;;;6.40;99.90;5.90;99614.00;;;;4915183;28;92995;-66
2024/03/01 03:02:44;;;;;;;28.20;14.73;;;6.20;99.90;5.90;99613.00;;;;4909192;28;93195;-67
2024/03/01 03:05:10;;;;;;;23.87;15.30;;;6.70;99.90;5.90;99614.00;;;;4905990;28;95729;-67
2024/03/01 03:07:37;;;;;;;24.07;15.27;;;6.00;99.90;5.90;99605.00;;;;4905088;28;123411;-67
2024/03/01 03:10:04;;;;;;;19.77;14.20;;;6.70;99.90;5.90;99614.00;;;;4910900;28;93050;-67
2024/03/01 03:12:30;;;;;;;20.83;13.30;;;6.10;99.90;5.90;99609.00;;;;4910321;28;92837;-67
2024/03/01 03:14:56;;;;;;;22.13;12.57;;;6.00;99.90;5.80;99606.00;;;;4910791;28;115035;-67
2024/03/01 03:17:24;;;;;;;23.73;13.20;;;6.50;99.90;5.80;99596.00;;;;4905517;28;113934;-67
2024/03/01 03:19:51;;;;;;;19.57;13.13;;;6.00;99.90;5.70;99606.00;;;;4907616;28;93150;-67
2024/03/01 03:22:17;;;;;;;20.87;12.90;;;6.00;99.90;5.70;99604.00;;;;4909149;28;94126;-67
2024/03/01 03:24:43;;;;;;;20.77;14.60;;;5.90;99.90;5.60;99600.00;;;;4910382;28;115798;-67
2024/03/01 03:27:09;;;;;;;24.10;12.30;;;6.10;99.90;5.50;99608.00;;;;4907396;28;121644;-68
2024/03/01 03:29:35;;;;;;;29.90;14.13;;;6.00;99.90;5.40;99607.00;;;;4913966;28;94652;-68
2024/03/01 03:32:03;;;;;;;24.43;13.60;;;5.70;99.90;5.40;99599.00;;;;4924971;28;94607;-67
2024/03/01 03:34:29;;;;;;;26.60;10.73;;;6.30;99.90;5.30;99598.00;;;;4906095;28;94059;-68
2024/03/01 03:36:55;;;;;;;25.63;12.73;;;5.50;99.90;5.30;99600.00;;;;4909582;28;92967;-68
2024/03/01 03:39:21;;;;;;;20.57;12.83;;;5.40;99.90;5.20;99597.00;;;;4912641;28;102231;-68
2024/03/01 03:41:47;;;;;;;22.20;13.40;;;5.40;99.90;5.20;99590.00;;;;4911466;28;108326;-67
2024/03/01 03:44:13;;;;;;;20.17;12.17;;;6.00;99.90;5.10;99589.00;;;;4909385;28;121748;-68
2024/03/01 03:46:38;;;;;;;22.50;13.40;;;5.30;99.90;5.10;99599.00;;;;4907895;28;94048;-67
2024/03/01 03:49:07;;;;;;;23.80;13.43;;;5.30;99.90;5.00;99588.00;;;;4901614;28;112595;-67
2024/03/01 03:51:33;;;;;;;17.07;11.60;;;5.20;99.90;5.00;99605.00;;;;4911343;28;92849;-67
2024/03/01 03:53:59;;;;;;;17.87;12.13;;;6.00;99.90;4.90;99602.00;;;;4904611;28;123293;-67
2024/03/01 03:56:25;;;;;;;20.20;11.77;;;5.10;99.90;4.90;99592.00;;;;4907956;28;121798;-67
2024/03/01 03:58:51;;;;;;;23.97;12.83;;;5.10;99.90;4.80;99594.00;;;;4912908;28;93203;-66
2024/03/01 04:01:21;;;;;;;21.33;13.77;;;5.00;99.90;4.80;99594.00;;;;4904844;28;94134;-68
2024/03/01 04:03:46;;;;;;;17.70;11.70;;;5.10;99.90;4.70;99602.00;;;;4910002;28;93542;-68
2024/03/01 04:06:12;;;;;;;21.23;12.80;;;5.90;99.90;4.70;99608.00;;;;4903773;28;121860;-68
2024/03/01 04:08:39;;;;;;;19.13;13.63;;;4.80;99.90;4.70;99601.00;;;;4908109;28;113733;-68
2024/03/01 04:11:08;;;;;;;16.60;11.80;;;4.90;99.90;4.70;99613.00;;;;4901725;28;93828;-68
2024/03/01 04:13:38;;;;;;;22.87;12.50;;;5.30;99.90;4.70;99610.00;;;;4923632;28;93265;-68
2024/03/01 04:16:06;;;;;;;25.33;13.77;;;4.80;99.90;4.70;99608.00;;;;4910762;28;93279;-68
2024/03/01 04:18:37;;;;;;;20.70;12.50;;;4.90;99.90;4.70;99614.00;;;;4906136;28;93050;-69
2024/03/01 04:21:05;;;;;;;26.30;13.40;;;5.30;99.90;4.60;99598.00;;;;4909516;28;99942;-68
2024/03/01 04:23:31;;;;;;;20.93;11.93;;;4.90;99.90;4.60;99595.00;;;;4908858;28;93895;-69
2024/03/01 04:25:57;;;;;;;25.17;13.50;;;4.90;99.90;4.60;99601.00;;;;4892011;28;94809;-69
2024/03/01 04:28:26;;;;;;;26.63;13.27;;;4.80;99.90;4.60;99602.00;;;;4907604;28;98588;-70
2024/03/01 04:30:53;;;;;;;22.37;13.60;;;4.90;99.90;4.60;99587.00;;;;4921673;28;92851;-70
2024/03/01 04:33:19;;;;;;;27.87;11.60;;;4.40;99.90;4.50;99597.00;;;;4909440;28;94283;-70
2024/03/01 04:35:44;;;;;;;37.70;11.10;;;4.70;99.90;4.50;99585.00;;;;4909510;28;111592;-70
2024/03/01 04:38:10;;;;;;;21.07;12.03;;;4.90;99.90;4.50;99587.00;;;;4907652;28;92704;-69
2024/03/01 04:40:40;;;;;;;17.67;11.63;;;4.90;99.90;4.40;99587.00;;;;4906940;28;109291;-70
2024/03/01 04:43:09;;;;;;;18.43;11.47;;;4.70;99.90;4.40;99578.00;;;;4905301;28;93864;-70
2024/03/01 04:45:34;;;;;;;20.43;12.60;;;4.60;99.90;4.40;99572.00;;;;4906398;28;123191;-71
2024/03/01 04:48:00;;;;;;;25.80;12.50;;;4.60;99.90;4.30;99576.00;;;;4908924;28;110799;-70
2024/03/01 04:50:27;;;;;;;16.60;11.60;;;4.60;99.90;4.30;99576.00;;;;4906088;28;104697;-70
2024/03/01 04:52:53;;;;;;;20.10;11.93;;;4.50;99.90;4.30;99578.00;;;;4905510;28;92600;-70
2024/03/01 04:55:19;;;;;;;19.47;10.90;;;4.40;99.90;4.20;99580.00;;;;4905098;28;122808;-69
2024/03/01 04:57:44;;;;;;;17.40;10.10;;;4.40;99.90;4.10;99580.00;;;;4904972;28;94729;-70
2024/03/01 05:00:15;;;;;;;22.67;12.43;;;5.00;99.90;4.10;99574.00;;;;4898097;28;108497;-70
2024/03/01 05:02:44;;;;;;;14.53;10.83;;;4.40;99.90;4.00;99581.00;;;;4906490;28;93856;-70
2024/03/01 05:05:18;;;;;;;17.00;11.93;;;4.20;99.90;4.00;99586.00;;;;4909828;28;93280;-70
2024/03/01 05:07:48;;;;;;;18.67;11.20;;;4.20;99.90;3.90;99586.00;;;;4912118;28;92966;-70
2024/03/01 05:10:15;;;;;;;20.83;11.10;;;4.10;99.90;3.80;99590.00;;;;4911483;28;92688;-71
2024/03/01 05:12:42;;;;;;;16.97;11.07;;;4.10;99.90;3.80;99587.00;;;;4908520;28;94117;-70
2024/03/01 05:15:12;;;;;;;16.73;11.53;;;4.00;99.90;3.80;99582.00;;;;4906564;28;103941;-70
2024/03/01 05:17:41;;;;;;;16.67;10.50;;;5.60;99.90;3.70;99575.00;;;;4905176;28;92183;-70
2024/03/01 05:20:14;;;;;;;17.60;10.77;;;3.90;99.90;3.70;99580.00;;;;4902175;28;100157;-70
2024/03/01 05:22:46;;;;;;;15.90;11.60;;;3.90;99.90;3.60;99578.00;;;;4903744;28;93292;-70
2024/03/01 05:25:14;;;;;;;14.03;10.03;;;4.00;99.90;3.60;99567.00;;;;4903106;28;95245;-70
2024/03/01 05:27:45;;;;;;;15.87;9.83;;;4.10;99.90;3.60;99572.00;;;;4904564;28;93114;-70
2024/03/01 05:30:12;;;;;;;17.17;11.97;;;3.90;99.90;3.50;99574.00;;;;4904682;28;93115;-70
2024/03/01 05:32:44;;;;;;;18.17;11.23;;;3.80;99.90;3.50;99586.00;;;;4901900;28;94537;-71
2024/03/01 05:35:12;;;;;;;17.50;11.43;;;3.70;99.90;3.50;99573.00;;;;4917668;28;94967;-71
2024/03/01 05:37:37;;;;;;;16.87;10.50;;;3.70;99.90;3.40;99577.00;;;;4902646;28;93217;-71
2024/03/01 05:40:05;;;;;;;16.87;11.67;;;4.30;99.90;3.40;99586.00;;;;4904221;28;107846;-71
2024/03/01 05:42:31;;;;;;;14.10;10.57;;;3.70;99.90;3.30;99590.00;;;;4903100;28;92822;-71
2024/03/01 05:44:57;;;;;;;22.23;13.97;;;3.50;99.90;3.30;99576.00;;;;4906000;28;94225;-67
2024/03/01 05:47:23;;;;;;;19.77;11.37;;;3.60;99.90;3.30;99584.00;;;;4903458;28;111417;-68
2024/03/01 05:49:50;;;;;;;16.43;10.50;;;3.50;99.90;3.20;99587.00;;;;4904310;28;94140;-67
2024/03/01 05:52:16;;;;;;;15.17;10.80;;;3.50;99.90;3.20;99583.00;;;;4908995;28;120583;-67
2024/03/01 05:54:42;;;;;;;14.93;11.03;;;3.50;99.90;3.20;99586.00;;;;4904763;28;122842;-66
2024/03/01 05:57:08;;;;;;;14.20;9.67;;;3.40;99.90;3.10;99590.00;;;;4904688;28;113027;-66
2024/03/01 05:59:33;;;;;;;16.97;11.37;;;3.40;99.90;3.10;99598.00;;;;4908397;28;93018;-67
2024/03/01 06:01:59;;;;;;;16.30;11.07;;;4.20;99.90;3.10;99606.00;;;;4909583;28;121786;-67
2024/03/01 06:04:25;;;;;;;17.10;10.57;;;3.30;99.90;3.10;99602.00;;;;4907132;28;121944;-68
2024/03/01 06:06:50;;;;;;;25.13;17.60;;;3.30;99.90;3.00;99604.00;;;;4908394;28;92571;-66
2024/03/01 06:09:17;;;;;;;26.23;16.70;;;3.30;99.90;3.00;99596.00;;;;4908212;28;93064;-67
2024/03/01 06:11:43;;;;;;;19.93;12.63;;;3.30;99.90;3.00;99606.00;;;;4907847;28;94419;-67
2024/03/01 06:14:10;;;;;;;14.13;11.27;;;3.50;99.90;3.00;99608.00;;;;4904960;28;107793;-67
2024/03/01 06:16:36;;;;;;;15.57;11.50;;;3.50;99.90;3.00;99618.00;;;;4907435;28;94646;-67
2024/03/01 06:19:02;;;;;;;13.20;10.83;;;3.20;99.90;3.00;99615.00;;;;4909628;28;94491;-67
2024/03/01 06:21:28;;;;;;;14.90;11.33;;;4.20;99.90;3.10;99614.00;;;;4908733;28;122772;-68
2024/03/01 06:23:54;;;;;;;22.37;12.73;;;3.40;99.90;3.10;99620.00;;;;4910232;28;110326;-67
2024/03/01 06:26:19;;;;;;;11.10;9.57;;;3.20;99.90;3.10;99615.00;;;;4912848;28;111568;-67
2024/03/01 06:28:45;;;;;;;15.80;11.43;;;3.30;99.90;3.10;99613.00;;;;4913094;28;93007;-67
2024/03/01 06:31:11;;;;;;;24.30;16.10;;;3.30;99.90;3.20;99620.00;;;;4917637;28;122286;-67
2024/03/01 06:33:38;;;;;;;19.00;11.80;;;3.40;99.90;3.20;99616.00;;;;4907568;28;121274;-66
2024/03/01 06:36:04;;;;;;;23.10;13.10;;;3.30;99.90;3.20;99620.00;;;;4912106;28;93133;-66
2024/03/01 06:38:30;;;;;;;17.73;11.53;;;3.50;99.90;3.20;99618.00;;;;4914022;28;98532;-67
2024/03/01 06:40:59;;;;;;;14.37;10.07;;;3.50;99.90;3.30;99623.00;;;;4912098;28;122047;-67
2024/03/01 06:43:24;;;;;;;17.30;11.30;;;3.50;99.90;3.30;99622.00;;;;4908799;28;93689;-67
2024/03/01 06:45:50;;;;;;;15.33;10.57;;;3.50;99.90;3.40;99628.00;;;;4907979;28;114325;-67
2024/03/01 06:48:16;;;;;;;18.40;11.77;;;4.50;99.90;3.40;99628.00;;;;4909635;28;108662;-67
2024/03/01 06:50:41;;;;;;;17.13;11.47;;;3.60;99.90;3.50;99634.00;;;;4908008;28;95320;-66
2024/03/01 06:53:07;;;;;;;13.53;10.93;;;3.90;99.90;3.60;99624.00;;;;4906265;28;109998;-67
2024/03/01 06:55:33;;;;;;;13.73;10.60;;;3.80;99.90;3.60;99624.00;;;;4910253;28;92440;-67
2024/03/01 06:57:58;;;;;;;13.90;9.80;;;4.80;99.90;3.70;99635.00;;;;4908813;28;108714;-67
2024/03/01 07:00:25;;;;;;;23.07;15.83;;;3.90;99.90;3.80;99642.00;;;;4911370;28;92928;-67
2024/03/01 07:02:50;;;;;;;21.90;13.57;;;4.00;99.90;3.80;99639.00;;;;4905587;28;93753;-67
2024/03/01 07:05:16;;;;;;;17.77;10.80;;;4.00;99.90;3.90;99642.00;;;;4909680;28;113300;-68
2024/03/01 07:07:42;;;;;;;23.10;13.03;;;4.00;99.90;3.90;99647.00;;;;4912428;28;108307;-67
2024/03/01 07:10:07;;;;;;;15.37;10.67;;;4.10;99.90;4.00;99639.00;;;;4911092;28;114542;-67
2024/03/01 07:12:36;;;;;;;23.53;14.47;;;4.20;99.90;4.10;99633.00;;;;4911037;28;124672;-67
2024/03/01 07:15:03;;;;;;;24.83;15.27;;;4.30;99.90;4.10;99634.00;;;;4905956;28;93359;-67
2024/03/01 07:17:29;;;;;;;20.40;13.83;;;4.40;99.90;4.20;99639.00;;;;4908762;28;92949;-67
2024/03/01 07:19:54;;;;;;;11.63;10.23;;;4.40;99.90;4.30;99641.00;;;;4905896;28;122341;-68
2024/03/01 07:22:20;;;;;;;24.43;15.70;;;4.40;99.90;4.50;99646.00;;;;4907644;28;93020;-68
2024/03/01 07:24:45;;;;;;;23.07;15.50;;;4.60;99.90;4.60;99639.00;;;;4905906;28;111925;-68
2024/03/01 07:27:11;;;;;;;20.97;15.40;;;4.80;99.90;4.80;99643.00;;;;4902056;28;106878;-68
2024/03/01 07:29:37;;;;;;;20.77;14.73;;;5.60;99.90;4.90;99636.00;;;;4908593;28;95713;-68
2024/03/01 07:32:03;;;;;;;17.47;13.87;;;5.70;99.90;5.00;99648.00;;;;4905815;28;123083;-68
2024/03/01 07:34:28;;;;;;;24.67;14.43;;;5.20;99.90;5.20;99647.00;;;;4905492;28;103504;-68
2024/03/01 07:36:54;;;;;;;17.50;12.33;;;6.10;99.90;5.30;99652.00;;;;4905066;28;105221;-68
2024/03/01 07:39:23;;;;;;;18.33;13.20;;;5.40;99.90;5.40;99651.00;;;;4905510;28;122125;-68
2024/03/01 07:41:48;;;;;;;27.20;14.13;;;6.00;99.90;5.60;99659.00;;;;4904519;28;122517;-68
2024/03/01 07:44:14;;;;;;;16.93;11.77;;;5.60;99.90;5.70;99660.00;;;;4907761;28;113190;-69
2024/03/01 07:46:40;;;;;;;21.40;13.23;;;5.80;99.90;5.90;99659.00;;;;4905400;28;109374;-67
2024/03/01 07:49:06;;;;;;;19.40;12.50;;;6.20;99.90;6.10;99656.00;;;;4905837;28;123368;-67
2024/03/01 07:51:31;;;;;;;26.83;15.00;;;6.20;99.90;6.20;99661.00;;;;4903389;28;120293;-67
2024/03/01 07:53:57;;;;;;;23.80;12.90;;;6.60;99.90;6.40;99656.00;;;;4905701;28;112885;-68
2024/03/01 07:56:23;;;;;;;21.20;15.30;;;6.50;99.90;6.60;99668.00;;;;4906212;28;108425;-68
2024/03/01 07:59:02;;;;;;;23.57;13.40;;;6.50;99.90;6.80;99663.00;;;;4907104;28;94711;-68
2024/03/01 08:01:28;;;;;;;25.70;15.93;;;6.90;99.90;7.10;99656.00;;;;4909657;28;93621;-69
2024/03/01 08:03:54;;;;;;;24.13;16.73;;;7.60;99.90;7.30;99658.00;;;;4908811;28;101787;-69
2024/03/01 08:06:20;;;;;;;30.27;18.77;;;7.50;99.90;7.50;99658.00;;;;4912037;28;105603;-69
2024/03/01 08:08:46;;;;;;;27.83;17.27;;;7.60;99.90;7.70;99659.00;;;;4906248;28;92626;-69
2024/03/01 08:11:40;;;;;;;26.40;16.87;;;7.80;99.90;8.00;99675.00;;;;4916229;28;94964;-70
2024/03/01 08:14:16;;;;;;;22.27;13.03;;;8.00;99.90;8.30;99678.00;;;;4905438;28;92870;-70
2024/03/01 08:16:42;;;;;;;19.70;13.27;;;8.30;99.90;8.60;99675.00;;;;4907701;28;95909;-70
2024/03/01 08:19:13;;;;;;;19.97;12.43;;;8.60;99.90;8.80;99681.00;;;;4906819;28;94283;-70
2024/03/01 08:21:38;;;;;;;17.57;11.50;;;8.80;99.90;9.00;99687.00;;;;4907042;28;92918;-69
2024/03/01 08:24:04;;;;;;;17.73;12.20;;;9.00;99.90;9.00;99676.00;;;;4907880;28;112566;-70
2024/03/01 08:26:30;;;;;;;14.87;10.57;;;9.10;99.90;9.10;99681.00;;;;4904779;28;101081;-69
2024/03/01 08:29:00;;;;;;;18.87;10.33;;;9.20;99.90;9.10;99683.00;;;;4909572;28;94724;-68
2024/03/01 08:31:33;;;;;;;12.07;8.43;;;9.30;99.90;9.00;99684.00;;;;4908247;28;94054;-70
2024/03/01 08:34:21;;;;;;;20.13;10.57;;;9.20;99.90;9.00;99691.00;;;;4910376;28;92214;-70
2024/03/01 08:36:49;;;;;;;16.50;9.67;;;9.50;99.90;9.00;99697.00;;;;4907893;28;93298;-70
2024/03/01 08:39:16;;;;;;;16.17;10.73;;;9.20;99.90;9.00;99694.00;;;;4914633;28;94221;-69
2024/03/01 08:41:45;;;;;;;15.63;9.40;;;9.10;99.90;9.00;99691.00;;;;4921276;28;94188;-70
2024/03/01 08:44:41;;;;;;;14.43;11.07;;;9.10;99.90;8.90;99674.00;;;;4907778;28;93224;-70
2024/03/01 08:47:37;;;;;;;17.63;10.50;;;9.10;99.90;9.00;99692.00;;;;4905579;28;93194;-69
2024/03/01 08:50:24;;;;;;;17.70;11.47;;;9.10;99.90;9.10;99702.00;;;;4907200;28;92779;-69
2024/03/01 08:52:51;;;;;;;19.93;11.00;;;9.20;99.90;9.20;99716.00;;;;4906666;28;94525;-68
2024/03/01 08:55:17;;;;;;;17.67;10.30;;;9.30;99.90;9.30;99714.00;;;;4906490;28;93068;-69
2024/03/01 08:57:44;;;;;;;17.43;11.53;;;9.40;99.90;9.40;99708.00;;;;4904698;28;92845;-68
2024/03/01 09:00:37;;;;;;;16.73;10.40;;;10.40;99.90;9.60;99704.00;;;;4909668;28;92740;-68
2024/03/01 09:03:10;;;;;;;19.90;10.43;;;9.60;99.90;9.70;99707.00;;;;4907669;28;93060;-67
2024/03/01 09:05:40;;;;;;;16.53;10.33;;;9.70;99.90;9.80;99695.00;;;;4907319;28;93157;-68
2024/03/01 09:08:08;;;;;;;12.90;10.23;;;9.90;99.90;9.90;99704.00;;;;4910685;28;93860;-69
2024/03/01 09:10:35;;;;;;;19.17;11.17;;;9.90;99.90;9.90;99698.00;;;;4909090;28;93370;-68
2024/03/01 09:13:03;;;;;;;14.50;10.33;;;9.90;99.90;9.80;99705.00;;;;4904671;28;92943;-68
2024/03/01 09:15:39;;;;;;;20.37;11.00;;;10.00;99.90;9.80;99709.00;;;;4910190;28;92927;-68
2024/03/01 09:18:23;;;;;;;14.27;9.40;;;9.90;99.90;9.90;99715.00;;;;4904090;28;92978;-68
2024/03/01 09:20:49;;;;;;;19.13;9.83;;;9.90;99.90;9.90;99720.00;;;;4921168;28;96307;-68
2024/03/01 09:23:16;;;;;;;16.07;10.97;;;10.00;99.90;9.90;99717.00;;;;4907422;28;122825;-68
2024/03/01 09:25:47;;;;;;;14.57;9.50;;;10.00;99.90;10.00;99719.00;;;;4907476;28;110344;-66
2024/03/01 09:28:19;;;;;;;16.83;11.73;;;10.00;99.90;10.00;99705.00;;;;4908671;28;94706;-67
2024/03/01 09:30:47;;;;;;;19.00;12.17;;;10.10;99.90;10.10;99704.00;;;;4909782;28;93143;-67
2024/03/01 09:33:15;;;;;;;22.57;11.40;;;10.10;99.90;10.10;99712.00;;;;4911545;28;97504;-66
2024/03/01 09:35:42;;;;;;;16.47;11.33;;;10.20;99.90;10.20;99711.00;;;;4909806;28;105614;-66
2024/03/01 09:38:11;;;;;;;19.27;10.20;;;10.20;99.90;10.20;99717.00;;;;4909072;28;94410;-66
2024/03/01 09:40:49;;;;;;;18.57;11.10;;;10.20;99.90;10.20;99715.00;;;;4914572;28;93549;-66
2024/03/01 09:43:49;;;;;;;21.03;11.10;;;10.40;99.90;10.30;99706.00;;;;4908660;28;93522;-65
2024/03/01 09:46:30;;;;;;;15.70;10.83;;;10.30;99.90;10.50;99700.00;;;;4924137;28;94064;-65
2024/03/01 09:49:35;;;;;;;15.80;11.63;;;10.50;99.90;10.60;99715.00;;;;4909728;28;92879;-65
2024/03/01 09:52:28;;;;;;;20.73;12.63;;;10.60;99.90;10.80;99696.00;;;;4913706;28;91941;-65
2024/03/01 09:55:37;;;;;;;17.83;10.77;;;10.70;99.90;11.00;99703.00;;;;4910327;28;93048;-64
2024/03/01 09:58:16;;;;;;;14.47;11.00;;;11.00;99.90;11.20;99705.00;;;;4915093;28;92816;-64
2024/03/01 10:01:23;;;;;;;14.67;9.17;;;11.10;99.90;11.30;99702.00;;;;4912142;28;97381;-65
2024/03/01 10:03:52;;;;;;;14.80;9.93;;;11.30;99.90;11.40;99697.00;;;;4923921;28;93133;-66
2024/03/01 10:06:43;;;;;;;12.50;8.83;;;11.40;99.90;11.50;99695.00;;;;4912811;28;93592;-65
2024/03/01 10:09:31;;;;;;;19.63;9.70;;;11.40;99.90;11.60;99706.00;;;;4910558;28;92883;-64
2024/03/01 10:12:32;;;;;;;16.17;10.53;;;11.60;99.90;11.70;99698.00;;;;4909521;28;93060;-64
2024/03/01 10:15:32;;;;;;;14.40;8.10;;;11.70;99.90;11.80;99701.00;;;;4909181;28;93381;-65
2024/03/01 10:18:36;;;;;;;14.43;8.90;;;11.80;99.90;11.90;99708.00;;;;4909046;28;93484;-65
2024/03/01 10:21:37;;;;;;;16.20;10.37;;;11.90;99.90;12.00;99706.00;;;;4911713;28;92071;-66
2024/03/01 10:24:30;;;;;;;17.10;9.97;;;12.00;99.90;12.10;99697.00;;;;4910081;28;93132;-65
2024/03/01 10:27:07;;;;;;;20.23;11.47;;;12.10;99.90;12.20;99699.00;;;;4912341;28;93348;-65
2024/03/01 10:29:54;;;;;;;19.70;10.87;;;12.20;99.90;12.30;99699.00;;;;4910933;28;94001;-65
2024/03/01 10:32:51;;;;;;;15.83;9.70;;;12.30;99.90;12.40;99694.00;;;;4911209;28;105830;-65
2024/03/01 10:35:21;;;;;;;15.73;10.20;;;12.30;99.90;12.40;99690.00;;;;4922516;28;95293;-65
2024/03/01 10:38:20;;;;;;;17.17;9.23;;;12.30;99.90;12.40;99703.00;;;;4911193;28;93162;-65
2024/03/01 10:41:39;;;;;;;13.10;9.27;;;12.40;99.90;12.50;99690.00;;;;4912074;28;93218;-64
2024/03/01 10:44:12;;;;;;;17.63;9.60;;;12.40;99.90;12.50;99703.00;;;;4914961;28;92925;-65
2024/03/01 10:47:21;;;;;;;15.53;9.67;;;12.50;99.90;12.40;99703.00;;;;4906123;28;93241;-65
2024/03/01 10:50:12;;;;;;;17.50;8.77;;;12.50;99.90;12.30;99706.00;;;;4907867;28;93054;-65
2024/03/01 10:52:57;;;;;;;17.57;8.73;;;12.30;99.90;12.30;99707.00;;;;4908876;28;92945;-63
2024/03/01 10:55:26;;;;;;;14.97;9.13;;;12.30;99.90;12.30;99703.00;;;;4910172;28;92719;-64
2024/03/01 10:58:13;;;;;;;13.90;8.53;;;12.40;99.90;12.30;99701.00;;;;4907834;28;94519;-64
2024/03/01 11:00:48;;;;;;;15.30;8.57;;;12.30;99.90;12.30;99697.00;;;;4907435;28;93146;-64
2024/03/01 11:03:44;;;;;;;13.63;8.10;;;12.30;99.90;12.20;99702.00;;;;4915217;28;93290;-64